createdAt,value
2023-04-27T00:00:11.265Z,99417.06
2023-04-27T00:02:40.631Z,99416.88
2023-04-27T00:05:07.588Z,99417.47
2023-04-27T00:07:34.119Z,99420.56
2023-04-27T00:10:00.552Z,99419.81
2023-04-27T00:12:26.969Z,99418.34
2023-04-27T00:14:53.424Z,99415.22
2023-04-27T00:17:19.871Z,99417.66
2023-04-27T00:19:47.439Z,99423.16
2023-04-27T00:22:14.052Z,99418.44
2023-04-27T00:24:41.680Z,99417.66
2023-04-27T00:27:08.099Z,99415.91
2023-04-27T00:29:34.561Z,99417.75
2023-04-27T00:32:01.033Z,99411.56
2023-04-27T00:34:27.438Z,99405.00
2023-04-27T00:36:53.957Z,99404.06
2023-04-27T00:39:20.475Z,99404.25
2023-04-27T00:41:46.883Z,99409.19
2023-04-27T00:44:13.368Z,99403.22
2023-04-27T00:46:39.919Z,99398.97
2023-04-27T00:49:06.393Z,99403.06
2023-04-27T00:51:33.000Z,99400.41
2023-04-27T00:54:00.834Z,99402.47
2023-04-27T00:56:27.248Z,99396.53
2023-04-27T00:58:53.924Z,99393.22
2023-04-27T01:01:20.647Z,99395.09
2023-04-27T01:03:47.913Z,99389.53
2023-04-27T01:06:14.610Z,99401.28
2023-04-27T01:08:41.254Z,99409.34
2023-04-27T01:11:07.899Z,99401.69
2023-04-27T01:13:34.312Z,99404.97
2023-04-27T01:16:00.859Z,99407.47
2023-04-27T01:18:27.301Z,99402.53
2023-04-27T01:20:53.817Z,99409.53
2023-04-27T01:23:20.247Z,99410.94
2023-04-27T01:25:46.670Z,99404.31
2023-04-27T01:28:13.268Z,99410.50
2023-04-27T01:30:39.664Z,99408.91
2023-04-27T01:33:06.312Z,99403.84
2023-04-27T01:35:32.811Z,99403.78
2023-04-27T01:37:59.356Z,99398.19
2023-04-27T01:40:25.900Z,99392.03
2023-04-27T01:42:52.347Z,99402.78
2023-04-27T01:45:18.739Z,99403.31
2023-04-27T01:47:45.164Z,99394.16
2023-04-27T01:50:11.749Z,99398.81
2023-04-27T01:52:38.188Z,99392.19
2023-04-27T01:55:05.024Z,99401.00
2023-04-27T01:57:31.588Z,99397.63
2023-04-27T01:59:57.994Z,99405.19
2023-04-27T02:02:24.585Z,99404.63
2023-04-27T02:04:51.346Z,99401.09
2023-04-27T02:07:17.898Z,99400.69
2023-04-27T02:09:44.354Z,99396.38
2023-04-27T02:12:11.746Z,99400.09
2023-04-27T02:14:38.166Z,99398.13
2023-04-27T02:17:04.544Z,99403.19
2023-04-27T02:19:31.097Z,99401.00
2023-04-27T02:21:57.563Z,99398.19
2023-04-27T02:24:24.059Z,99403.38
2023-04-27T02:26:50.575Z,99397.13
2023-04-27T02:29:17.429Z,99402.31
2023-04-27T02:31:44.463Z,99400.50
2023-04-27T02:34:11.021Z,99409.50
2023-04-27T02:36:37.469Z,99407.53
2023-04-27T02:39:04.109Z,99410.84
2023-04-27T02:41:33.583Z,99412.22
2023-04-27T02:44:00.038Z,99411.78
2023-04-27T02:46:27.223Z,99416.25
2023-04-27T02:48:53.809Z,99416.34
2023-04-27T02:51:20.195Z,99414.06
2023-04-27T02:53:46.610Z,99412.47
2023-04-27T02:56:13.099Z,99423.09
2023-04-27T02:58:39.495Z,99415.41
2023-04-27T03:01:05.986Z,99413.84
2023-04-27T03:03:32.654Z,99412.72
2023-04-27T03:05:59.242Z,99415.97
2023-04-27T03:08:26.175Z,99414.59
2023-04-27T03:10:52.602Z,99412.63
2023-04-27T03:13:19.047Z,99405.22
2023-04-27T03:15:45.668Z,99409.25
2023-04-27T03:18:12.088Z,99399.88
2023-04-27T03:20:38.611Z,99404.78
2023-04-27T03:23:05.102Z,99407.06
2023-04-27T03:25:31.571Z,99402.66
2023-04-27T03:27:57.948Z,99402.84
2023-04-27T03:30:24.377Z,99391.44
2023-04-27T03:32:50.850Z,99397.78
2023-04-27T03:35:17.556Z,99401.16
2023-04-27T03:37:45.908Z,99410.03
2023-04-27T03:40:12.959Z,99402.00
2023-04-27T03:42:39.337Z,99394.25
2023-04-27T03:45:07.103Z,99398.78
2023-04-27T03:47:33.658Z,99404.06
2023-04-27T03:50:00.060Z,99407.22
2023-04-27T03:52:26.480Z,99418.63
2023-04-27T03:54:52.898Z,99417.53
2023-04-27T03:57:19.282Z,99416.09
2023-04-27T03:59:45.714Z,99415.59
2023-04-27T04:02:12.178Z,99422.28
2023-04-27T04:04:38.945Z,99410.59
2023-04-27T04:07:05.829Z,99416.28
2023-04-27T04:09:32.275Z,99411.13
2023-04-27T04:11:58.641Z,99411.13
2023-04-27T04:14:25.206Z,99414.91
2023-04-27T04:16:51.636Z,99417.41
2023-04-27T04:19:18.747Z,99421.22
2023-04-27T04:21:46.532Z,99418.09
2023-04-27T04:24:13.513Z,99421.81
2023-04-27T04:26:39.956Z,99417.47
2023-04-27T04:29:07.563Z,99429.97
2023-04-27T04:31:35.354Z,99420.34
2023-04-27T04:34:02.299Z,99428.56
2023-04-27T04:36:28.725Z,99427.69
2023-04-27T04:38:57.067Z,99438.31
2023-04-27T04:41:23.914Z,99440.63
2023-04-27T04:43:50.734Z,99436.94
2023-04-27T04:46:17.267Z,99438.41
2023-04-27T04:48:43.779Z,99443.13
2023-04-27T04:51:10.258Z,99436.22
2023-04-27T04:53:37.143Z,99437.50
2023-04-27T04:56:10.916Z,99440.25
2023-04-27T04:58:37.391Z,99440.63
2023-04-27T05:01:03.850Z,99448.31
2023-04-27T05:03:30.560Z,99447.53
2023-04-27T05:05:57.324Z,99452.25
2023-04-27T05:08:23.924Z,99447.69
2023-04-27T05:10:51.200Z,99436.31
2023-04-27T05:13:17.896Z,99446.13
2023-04-27T05:15:44.375Z,99461.19
2023-04-27T05:18:11.009Z,99457.59
2023-04-27T05:20:38.264Z,99460.81
2023-04-27T05:23:05.070Z,99461.81
2023-04-27T05:25:32.387Z,99463.56
2023-04-27T05:27:59.093Z,99456.88
2023-04-27T05:30:25.643Z,99464.59
2023-04-27T05:32:52.096Z,99456.28
2023-04-27T05:35:18.624Z,99466.28
2023-04-27T05:37:47.858Z,99465.91
2023-04-27T05:40:15.184Z,99465.00
2023-04-27T05:42:41.596Z,99463.06
2023-04-27T05:45:08.492Z,99461.75
2023-04-27T05:47:34.979Z,99462.69
2023-04-27T05:50:01.560Z,99459.56
2023-04-27T05:52:30.898Z,99465.72
2023-04-27T05:54:58.863Z,99464.44
2023-04-27T05:57:25.735Z,99451.38
2023-04-27T05:59:52.867Z,99460.06
2023-04-27T06:02:19.812Z,99456.38
2023-04-27T06:04:46.649Z,99458.59
2023-04-27T06:07:16.345Z,99466.50
2023-04-27T06:09:42.906Z,99460.59
2023-04-27T06:12:09.563Z,99461.44
2023-04-27T06:14:36.867Z,99469.56
2023-04-27T06:17:04.052Z,99474.22
2023-04-27T06:19:30.464Z,99470.47
2023-04-27T06:21:57.087Z,99470.63
2023-04-27T06:24:23.534Z,99468.16
2023-04-27T06:26:50.107Z,99468.31
2023-04-27T06:29:16.616Z,99467.13
2023-04-27T06:31:43.095Z,99459.44
2023-04-27T06:34:09.683Z,99463.28
2023-04-27T06:36:37.249Z,99465.47
2023-04-27T06:39:03.642Z,99472.97
2023-04-27T06:41:30.104Z,99472.69
2023-04-27T06:43:58.580Z,99475.41
2023-04-27T06:46:26.074Z,99478.72
2023-04-27T06:48:52.740Z,99479.47
2023-04-27T06:51:19.224Z,99487.19
2023-04-27T06:53:45.648Z,99479.84
2023-04-27T06:56:12.472Z,99486.28
2023-04-27T06:58:38.874Z,99478.59
2023-04-27T07:01:05.557Z,99480.78
2023-04-27T07:03:35.928Z,99478.88
2023-04-27T07:06:02.472Z,99478.00
2023-04-27T07:08:28.991Z,99474.19
2023-04-27T07:10:56.214Z,99472.41
2023-04-27T07:13:22.680Z,99477.13
2023-04-27T07:15:54.647Z,99463.91
2023-04-27T07:18:21.119Z,99466.63
2023-04-27T07:20:47.508Z,99474.22
2023-04-27T07:23:13.886Z,99471.56
2023-04-27T07:25:40.393Z,99473.81
2023-04-27T07:28:06.781Z,99474.84
2023-04-27T07:30:36.400Z,99462.63
2023-04-27T07:33:03.349Z,99470.19
2023-04-27T07:35:29.921Z,99471.78
2023-04-27T07:37:56.685Z,99467.53
2023-04-27T07:40:24.128Z,99462.38
2023-04-27T07:42:51.080Z,99467.38
2023-04-27T07:45:20.533Z,99456.44
2023-04-27T07:47:47.559Z,99455.72
2023-04-27T07:50:18.023Z,99454.59
2023-04-27T07:52:44.466Z,99455.75
2023-04-27T07:55:11.006Z,99453.69
2023-04-27T07:57:37.410Z,99451.84
2023-04-27T08:00:08.712Z,99454.47
2023-04-27T08:02:35.318Z,99460.22
2023-04-27T08:05:03.077Z,99464.63
2023-04-27T08:07:30.223Z,99459.59
2023-04-27T08:09:57.380Z,99469.41
2023-04-27T08:12:23.760Z,99461.56
2023-04-27T08:14:50.184Z,99460.41
2023-04-27T08:17:18.347Z,99452.41
2023-04-27T08:19:44.861Z,99443.22
2023-04-27T08:22:11.365Z,99448.81
2023-04-27T08:24:37.861Z,99450.41
2023-04-27T08:27:06.254Z,99458.38
2023-04-27T08:29:33.049Z,99451.41
2023-04-27T08:32:01.866Z,99446.47
2023-04-27T08:34:28.878Z,99450.03
2023-04-27T08:36:55.461Z,99446.69
2023-04-27T08:39:22.068Z,99438.88
2023-04-27T08:41:48.513Z,99440.63
2023-04-27T08:44:15.020Z,99429.94
2023-04-27T08:46:41.864Z,99428.91
2023-04-27T08:49:08.447Z,99430.09
2023-04-27T08:51:35.183Z,99429.94
2023-04-27T08:54:01.981Z,99432.09
2023-04-27T08:56:29.729Z,99430.41
2023-04-27T08:58:57.630Z,99423.91
2023-04-27T09:01:25.315Z,99428.69
2023-04-27T09:04:00.307Z,99426.84
2023-04-27T09:06:34.501Z,99422.44
2023-04-27T09:09:02.123Z,99417.25
2023-04-27T09:11:35.886Z,99418.00
2023-04-27T09:14:19.633Z,99428.03
2023-04-27T09:16:46.422Z,99429.41
2023-04-27T09:19:24.807Z,99429.56
2023-04-27T09:21:51.904Z,99427.28
2023-04-27T09:24:18.276Z,99432.19
2023-04-27T09:26:49.647Z,99419.28
2023-04-27T09:29:16.266Z,99426.78
2023-04-27T09:31:42.918Z,99423.13
2023-04-27T09:34:09.371Z,99421.66
2023-04-27T09:36:36.042Z,99425.75
2023-04-27T09:39:04.583Z,99433.59
2023-04-27T09:41:32.571Z,99435.59
2023-04-27T09:43:59.222Z,99436.41
2023-04-27T09:46:26.454Z,99425.38
2023-04-27T09:48:53.346Z,99421.97
2023-04-27T09:51:19.809Z,99422.28
2023-04-27T09:53:49.079Z,99409.03
2023-04-27T09:56:37.307Z,99410.06
2023-04-27T09:59:09.836Z,99412.84
2023-04-27T10:01:41.877Z,99413.66
2023-04-27T10:04:11.686Z,99417.38
2023-04-27T10:09:23.614Z,99417.41
2023-04-27T10:11:51.338Z,99415.75
2023-04-27T10:14:20.042Z,99411.63
2023-04-27T10:16:51.313Z,99419.75
2023-04-27T10:19:17.950Z,99409.91
2023-04-27T10:21:56.940Z,99399.28
2023-04-27T10:24:39.427Z,99396.75
2023-04-27T10:27:07.832Z,99395.34
2023-04-27T10:29:39.278Z,99397.13
2023-04-27T10:32:13.571Z,99394.41
2023-04-27T10:34:40.585Z,99389.00
2023-04-27T10:37:12.368Z,99392.25
2023-04-27T10:39:48.455Z,99395.44
2023-04-27T10:42:26.174Z,99393.44
2023-04-27T10:44:56.184Z,99389.34
2023-04-27T10:47:23.964Z,99387.84
2023-04-27T10:49:54.449Z,99376.69
2023-04-27T10:52:21.051Z,99375.38
2023-04-27T10:54:47.550Z,99376.69
2023-04-27T10:57:14.052Z,99375.09
2023-04-27T10:59:51.939Z,99380.00
2023-04-27T11:02:26.674Z,99371.00
2023-04-27T11:04:53.339Z,99363.16
2023-04-27T11:07:25.420Z,99361.88
2023-04-27T11:09:52.098Z,99366.25
2023-04-27T11:12:18.853Z,99356.81
2023-04-27T11:14:45.297Z,99355.97
2023-04-27T11:17:13.221Z,99350.03
2023-04-27T11:19:48.760Z,99345.88
2023-04-27T11:22:16.839Z,99345.84
2023-04-27T11:24:48.202Z,99342.44
2023-04-27T11:27:14.632Z,99336.09
2023-04-27T11:29:41.599Z,99337.44
2023-04-27T11:32:08.069Z,99339.63
2023-04-27T11:34:38.705Z,99339.19
2023-04-27T11:37:17.899Z,99347.53
2023-04-27T11:39:45.813Z,99345.16
2023-04-27T11:42:18.615Z,99340.16
2023-04-27T11:45:01.755Z,99341.31
2023-04-27T11:47:30.002Z,99331.84
2023-04-27T11:49:59.495Z,99337.03
2023-04-27T11:52:32.406Z,99334.03
2023-04-27T11:55:00.247Z,99324.16
2023-04-27T11:57:28.635Z,99312.19
2023-04-27T12:00:02.464Z,99317.22
2023-04-27T12:02:31.162Z,99315.84
2023-04-27T12:04:59.285Z,99313.28
2023-04-27T12:07:25.934Z,99301.88
2023-04-27T12:09:52.330Z,99306.94
2023-04-27T12:12:19.136Z,99301.59
2023-04-27T12:14:45.958Z,99296.25
2023-04-27T12:17:14.414Z,99300.63
2023-04-27T12:19:40.943Z,99299.91
2023-04-27T12:22:08.370Z,99298.81
2023-04-27T12:24:34.865Z,99300.81
2023-04-27T12:27:01.416Z,99291.69
2023-04-27T12:29:27.902Z,99305.22
2023-04-27T12:31:54.577Z,99303.94
2023-04-27T12:34:21.278Z,99297.38
2023-04-27T12:36:48.008Z,99296.31
2023-04-27T12:39:20.013Z,99298.78
2023-04-27T12:41:48.163Z,99286.13
2023-04-27T12:44:15.749Z,99297.28
2023-04-27T12:46:43.538Z,99290.75
2023-04-27T12:49:11.007Z,99282.91
2023-04-27T12:51:37.535Z,99282.47
2023-04-27T12:54:04.670Z,99282.56
2023-04-27T12:56:31.372Z,99287.00
2023-04-27T12:58:58.228Z,99289.53
2023-04-27T13:01:27.419Z,99292.44
2023-04-27T13:04:04.058Z,99283.88
2023-04-27T13:06:31.795Z,99292.56
2023-04-27T13:08:59.076Z,99285.28
2023-04-27T13:11:26.192Z,99286.31
2023-04-27T13:13:52.666Z,99284.81
2023-04-27T13:16:24.877Z,99286.00
2023-04-27T13:18:52.303Z,99285.34
2023-04-27T13:21:19.231Z,99282.22
2023-04-27T13:23:45.803Z,99278.72
2023-04-27T13:26:12.815Z,99282.41
2023-04-27T13:28:40.115Z,99280.94
2023-04-27T13:31:06.606Z,99280.97
2023-04-27T13:33:39.395Z,99287.34
2023-04-27T13:36:06.248Z,99288.00
2023-04-27T13:38:32.671Z,99282.31
2023-04-27T13:40:59.168Z,99287.63
2023-04-27T13:43:26.952Z,99278.09
2023-04-27T13:45:55.179Z,99271.66
2023-04-27T13:48:22.209Z,99275.25
2023-04-27T13:50:48.617Z,99273.66
2023-04-27T13:53:16.671Z,99270.91
2023-04-27T13:55:43.832Z,99262.38
2023-04-27T13:58:10.965Z,99260.03
2023-04-27T14:00:37.854Z,99259.63
2023-04-27T14:03:04.932Z,99262.59
2023-04-27T14:05:32.007Z,99261.09
2023-04-27T14:07:58.471Z,99261.16
2023-04-27T14:10:24.893Z,99249.00
2023-04-27T14:12:51.479Z,99245.59
2023-04-27T14:15:17.941Z,99258.38
2023-04-27T14:17:44.754Z,99252.72
2023-04-27T14:20:11.538Z,99252.72
2023-04-27T14:22:38.285Z,99243.22
2023-04-27T14:25:05.079Z,99247.09
2023-04-27T14:27:31.590Z,99244.84
2023-04-27T14:29:58.016Z,99239.63
2023-04-27T14:32:24.625Z,99243.59
2023-04-27T14:34:51.442Z,99231.19
2023-04-27T14:37:17.965Z,99231.94
2023-04-27T14:39:45.428Z,99227.78
2023-04-27T14:42:11.994Z,99226.91
2023-04-27T14:44:38.487Z,99217.00
2023-04-27T14:47:05.109Z,99219.06
2023-04-27T14:49:32.059Z,99215.56
2023-04-27T14:52:00.399Z,99205.34
2023-04-27T14:54:27.641Z,99198.59
2023-04-27T14:56:54.197Z,99209.22
2023-04-27T14:59:22.157Z,99203.13
2023-04-27T15:01:48.687Z,99199.56
2023-04-27T15:04:15.364Z,99201.94
2023-04-27T15:06:41.831Z,99196.22
2023-04-27T15:09:08.272Z,99200.63
2023-04-27T15:11:35.152Z,99195.69
2023-04-27T15:14:01.594Z,99187.06
2023-04-27T15:16:28.136Z,99190.31
2023-04-27T15:18:54.654Z,99195.31
2023-04-27T15:21:21.983Z,99184.59
2023-04-27T15:23:48.745Z,99182.69
2023-04-27T15:26:15.260Z,99184.63
2023-04-27T15:28:41.730Z,99186.59
2023-04-27T15:31:08.511Z,99174.34
2023-04-27T15:33:35.141Z,99183.88
2023-04-27T15:36:01.999Z,99184.31
2023-04-27T15:38:28.451Z,99176.44
2023-04-27T15:40:54.902Z,99179.84
2023-04-27T15:43:21.787Z,99181.31
2023-04-27T15:45:48.699Z,99180.00
2023-04-27T15:48:16.037Z,99173.72
2023-04-27T15:50:44.496Z,99174.28
2023-04-27T15:53:11.015Z,99179.72
2023-04-27T15:55:37.573Z,99179.72
2023-04-27T15:58:04.112Z,99174.34
2023-04-27T16:00:30.707Z,99167.44
2023-04-27T16:02:57.263Z,99184.97
2023-04-27T16:05:23.844Z,99177.97
2023-04-27T16:07:50.465Z,99176.34
2023-04-27T16:10:16.850Z,99170.34
2023-04-27T16:12:43.298Z,99161.16
2023-04-27T16:15:11.463Z,99167.13
2023-04-27T16:17:38.693Z,99160.44
2023-04-27T16:20:09.341Z,99160.38
2023-04-27T16:22:36.799Z,99148.94
2023-04-27T16:25:04.350Z,99151.72
2023-04-27T16:27:30.950Z,99156.81
2023-04-27T16:29:57.400Z,99142.84
2023-04-27T16:32:24.013Z,99148.19
2023-04-27T16:34:50.662Z,99143.81
2023-04-27T16:37:17.171Z,99135.88
2023-04-27T16:39:43.586Z,99141.00
2023-04-27T16:42:10.162Z,99136.50
2023-04-27T16:44:37.923Z,99136.78
2023-04-27T16:47:04.371Z,99132.41
2023-04-27T16:49:30.907Z,99132.50
2023-04-27T16:51:57.340Z,99134.16
2023-04-27T16:54:23.759Z,99136.03
2023-04-27T16:56:50.296Z,99142.97
2023-04-27T16:59:17.110Z,99123.75
2023-04-27T17:01:43.775Z,99127.19
2023-04-27T17:04:10.750Z,99119.41
2023-04-27T17:06:37.250Z,99117.63
2023-04-27T17:09:04.359Z,99121.53
2023-04-27T17:11:30.846Z,99120.34
2023-04-27T17:13:57.532Z,99113.28
2023-04-27T17:16:24.041Z,99117.09
2023-04-27T17:18:50.585Z,99117.84
2023-04-27T17:21:17.317Z,99121.41
2023-04-27T17:23:46.493Z,99110.94
2023-04-27T17:26:15.764Z,99114.34
2023-04-27T17:28:42.196Z,99115.03
2023-04-27T17:31:08.655Z,99107.03
2023-04-27T17:33:35.334Z,99107.19
2023-04-27T17:36:01.820Z,99107.91
2023-04-27T17:38:28.267Z,99111.47
2023-04-27T17:40:54.702Z,99115.81
2023-04-27T17:43:21.152Z,99115.59
2023-04-27T17:45:47.543Z,99110.28
2023-04-27T17:48:13.999Z,99109.47
2023-04-27T17:50:41.087Z,99107.78
2023-04-27T17:53:07.537Z,99110.34
2023-04-27T17:55:33.988Z,99105.75
2023-04-27T17:58:00.452Z,99104.06
2023-04-27T18:00:27.116Z,99102.97
2023-04-27T18:02:53.787Z,99113.47
2023-04-27T18:05:20.385Z,99110.81
2023-04-27T18:07:46.871Z,99107.34
2023-04-27T18:10:13.556Z,99101.25
2023-04-27T18:12:40.040Z,99107.31
2023-04-27T18:15:09.491Z,99108.13
2023-04-27T18:17:36.481Z,99108.91
2023-04-27T18:20:09.370Z,99099.31
2023-04-27T18:22:37.788Z,99100.13
2023-04-27T18:25:04.615Z,99109.63
2023-04-27T18:27:32.735Z,99100.91
2023-04-27T18:29:59.222Z,99108.50
2023-04-27T18:32:25.837Z,99110.97
2023-04-27T18:34:52.378Z,99098.44
2023-04-27T18:37:18.783Z,99095.63
2023-04-27T18:39:45.251Z,99096.47
2023-04-27T18:42:11.983Z,99101.69
2023-04-27T18:44:38.398Z,99095.63
2023-04-27T18:47:04.947Z,99094.66
2023-04-27T18:49:32.032Z,99094.53
2023-04-27T18:51:58.755Z,99096.16
2023-04-27T18:54:25.274Z,99092.50
2023-04-27T18:56:53.548Z,99085.72
2023-04-27T18:59:20.344Z,99085.56
2023-04-27T19:01:46.925Z,99078.72
2023-04-27T19:04:14.479Z,99083.63
2023-04-27T19:06:41.099Z,99082.69
2023-04-27T19:09:09.133Z,99089.50
2023-04-27T19:11:35.976Z,99093.63
2023-04-27T19:14:02.487Z,99094.84
2023-04-27T19:16:29.007Z,99092.19
2023-04-27T19:18:55.532Z,99093.47
2023-04-27T19:21:21.951Z,99090.53
2023-04-27T19:23:48.364Z,99093.78
2023-04-27T19:26:14.835Z,99088.94
2023-04-27T19:28:41.336Z,99087.44
2023-04-27T19:31:07.885Z,99093.59
2023-04-27T19:33:34.567Z,99096.19
2023-04-27T19:36:00.978Z,99094.75
2023-04-27T19:38:27.516Z,99095.88
2023-04-27T19:40:54.062Z,99091.13
2023-04-27T19:43:20.832Z,99095.44
2023-04-27T19:45:49.120Z,99102.31
2023-04-27T19:48:16.119Z,99098.91
2023-04-27T19:50:43.481Z,99099.03
2023-04-27T19:53:10.662Z,99104.16
2023-04-27T19:55:37.225Z,99102.28
2023-04-27T19:58:03.643Z,99107.19
2023-04-27T20:00:30.882Z,99098.59
2023-04-27T20:02:57.374Z,99101.50
2023-04-27T20:05:24.409Z,99092.53
2023-04-27T20:07:51.055Z,99099.56
2023-04-27T20:10:17.619Z,99089.47
2023-04-27T20:12:54.634Z,99088.38
2023-04-27T20:15:23.170Z,99089.41
2023-04-27T20:17:49.579Z,99097.34
2023-04-27T20:20:16.162Z,99098.94
2023-04-27T20:22:42.795Z,99103.34
2023-04-27T20:25:09.812Z,99100.81
2023-04-27T20:27:36.341Z,99110.34
2023-04-27T20:30:03.174Z,99108.53
2023-04-27T20:32:29.630Z,99099.63
2023-04-27T20:34:56.098Z,99093.84
2023-04-27T20:37:24.719Z,99090.34
2023-04-27T20:39:52.074Z,99081.31
2023-04-27T20:42:18.693Z,99080.09
2023-04-27T20:44:48.478Z,99077.56
2023-04-27T20:47:15.061Z,99086.84
2023-04-27T20:49:41.886Z,99081.59
2023-04-27T20:52:08.349Z,99073.13
2023-04-27T20:54:34.838Z,99062.22
2023-04-27T20:57:02.089Z,99056.09
2023-04-27T20:59:28.748Z,99054.50
2023-04-27T21:01:55.204Z,99055.22
2023-04-27T21:04:21.781Z,99060.66
2023-04-27T21:06:48.227Z,99056.47
2023-04-27T21:09:14.659Z,99051.28
2023-04-27T21:11:41.077Z,99038.28
2023-04-27T21:14:07.614Z,99042.91
2023-04-27T21:16:34.350Z,99044.16
2023-04-27T21:19:00.937Z,99044.34
2023-04-27T21:21:27.420Z,99040.13
2023-04-27T21:24:00.831Z,99039.13
2023-04-27T21:26:34.061Z,99041.25
2023-04-27T21:29:01.110Z,99032.88
2023-04-27T21:31:27.611Z,99039.13
2023-04-27T21:33:54.182Z,99036.63
2023-04-27T21:36:20.911Z,99040.13
2023-04-27T21:38:47.339Z,99034.81
2023-04-27T21:41:13.924Z,99034.44
2023-04-27T21:43:42.055Z,99035.25
2023-04-27T21:46:09.226Z,99037.56
2023-04-27T21:48:36.196Z,99027.09
2023-04-27T21:51:02.609Z,99022.19
2023-04-27T21:53:32.061Z,99013.63
2023-04-27T21:55:58.669Z,99024.09
2023-04-27T21:58:25.645Z,99019.81
2023-04-27T22:00:52.211Z,99020.75
2023-04-27T22:03:18.820Z,99018.16
2023-04-27T22:05:48.717Z,99010.47
2023-04-27T22:08:15.194Z,99003.47
2023-04-27T22:10:41.706Z,99008.81
2023-04-27T22:13:18.786Z,99013.81
2023-04-27T22:15:46.495Z,99006.13
2023-04-27T22:18:14.608Z,99007.06
2023-04-27T22:20:41.568Z,99000.94
2023-04-27T22:23:09.181Z,99000.13
2023-04-27T22:25:35.767Z,99003.66
2023-04-27T22:28:02.199Z,99002.69
2023-04-27T22:30:29.107Z,99006.13
2023-04-27T22:32:56.285Z,99010.34
2023-04-27T22:35:27.193Z,99007.75
2023-04-27T22:37:59.195Z,99015.59
2023-04-27T22:40:26.101Z,99017.28
2023-04-27T22:42:53.321Z,99011.84
2023-04-27T22:45:19.814Z,99004.84
2023-04-27T22:47:46.432Z,99007.63
2023-04-27T22:50:13.441Z,99004.63
2023-04-27T22:52:42.277Z,99011.63
2023-04-27T22:55:09.433Z,99010.63
2023-04-27T22:57:35.899Z,99009.38
2023-04-27T23:00:05.061Z,99012.16
2023-04-27T23:02:31.968Z,99010.59
2023-04-27T23:04:58.812Z,99015.81
2023-04-27T23:07:25.813Z,99010.44
2023-04-27T23:09:52.687Z,99017.97
2023-04-27T23:12:19.234Z,99026.31
2023-04-27T23:14:45.655Z,99020.25
2023-04-27T23:17:12.071Z,99020.25
2023-04-27T23:19:40.541Z,99021.69
2023-04-27T23:22:07.221Z,99022.69
2023-04-27T23:24:33.618Z,99018.69
2023-04-27T23:27:00.103Z,99026.16
2023-04-27T23:29:26.576Z,99030.69
2023-04-27T23:31:52.949Z,99026.75
2023-04-27T23:34:19.359Z,99017.72
2023-04-27T23:36:45.765Z,99026.88
2023-04-27T23:39:12.226Z,99017.03
2023-04-27T23:41:38.649Z,99010.41
2023-04-27T23:44:05.147Z,99015.81
2023-04-27T23:46:31.646Z,99015.50
2023-04-27T23:48:58.121Z,99017.59
2023-04-27T23:51:24.602Z,99012.28
2023-04-27T23:53:51.044Z,99005.00
2023-04-27T23:56:18.390Z,98994.44
2023-04-27T23:58:47.976Z,99000.25
